Terminal Aerodrome Forecast
Issued by NWS Bismarck, ND

Home | Current Version | Previous Version | Graphics & Text | Print | Product List | Glossary On
Versions: 1 2 3 4 5 6 7 8 9 10 11 12 13 14 15
000
FTUS43 KBIS 282300
TAFISN
TAF
KISN 282336Z 2900/2924 27009KT P6SM BKN110
     FM290500 36005KT P6SM BKN070
     FM291100 36007KT P6SM VCSH SCT015 BKN120
     FM291800 04011KT P6SM SCT250=

USA.gov is the U.S. government's official web portal to all federal, state and local government web resources and services.